Salt Lake City, Utah
Traffic Map
Current Weather Conditions
Salt Lake City, Utah
Few Clouds
Few Clouds
36°
Feels Like: 36°
Wind Chill: 36° Ceiling: Unl
Heat Index: 36° Visibility: 10mi
Dew Point: -2° Wind: 7mph
Humidity: 9% Direction: 350° (N)
Pressure: 30.03in Gusts: 0mph
Raw Report DataKSLC 242354Z 35006KT 10SM FEW090 36/M02 A3003 RMK AO2 SLP108 T03561017 10361 20306 56013
Traffic Incident Summary
Active as of:
Severity:
Category:
InformationThere was an issue retrieving the traffic information for this location. Please try a different location or try again shortly.
Advertisements
Track Severe Weather on mobile